Time;durP1;ratioP1;P1;durP2;ratioP2;P2;SDS_P1;SDS_P2;PMS_P1;PMS_P2;Temp;Humidity;BMP_temperature;BMP_pressure;BME280_temperature;BME280_humidity;BME280_pressure;Samples;Min_cycle;Max_cycle;Signal;HPM_P1;HPM_P2
2022/03/16 00:01:16;;;;;;;42.50;21.23;;;3.70;99.90;;;;;;5112748;28;20095;-66
2022/03/16 00:03:41;;;;;;;44.00;21.45;;;3.60;99.90;;;;;;5113066;28;20102;-66
2022/03/16 00:06:07;;;;;;;65.63;27.92;;;3.60;99.90;;;;;;5113043;28;20442;-66
2022/03/16 00:08:32;;;;;;;53.40;24.10;;;3.60;99.90;;;;;;5112457;28;20065;-66
2022/03/16 00:11:01;;;;;;;50.22;24.27;;;3.60;99.90;;;;;;5129333;27;20036;-66
2022/03/16 00:13:26;;;;;;;37.53;20.25;;;3.60;99.90;;;;;;5130257;27;20054;-66
2022/03/16 00:15:52;;;;;;;60.53;20.95;;;3.60;99.90;;;;;;5131227;28;20433;-66
2022/03/16 00:18:19;;;;;;;230.90;24.75;;;3.60;99.90;;;;;;5110045;28;20354;-65
2022/03/16 00:20:47;;;;;;;52.60;24.42;;;3.50;99.90;;;;;;5101904;28;20124;-66
2022/03/16 00:23:14;;;;;;;62.33;24.65;;;3.50;99.90;;;;;;5128386;28;20097;-66
2022/03/16 00:25:39;;;;;;;70.28;27.70;;;3.50;99.90;;;;;;5112381;28;20049;-66
2022/03/16 00:28:05;;;;;;;69.43;28.65;;;3.40;99.90;;;;;;5112521;28;20117;-66
2022/03/16 00:30:30;;;;;;;65.72;27.88;;;3.30;99.90;;;;;;5112021;28;20496;-66
2022/03/16 00:32:56;;;;;;;52.22;24.63;;;3.20;99.90;;;;;;5111141;28;20031;-66
2022/03/16 00:35:21;;;;;;;70.03;29.17;;;3.20;99.90;;;;;;5112626;28;20062;-66
2022/03/16 00:37:47;;;;;;;48.13;23.25;;;3.20;99.90;;;;;;5127825;27;20035;-66
2022/03/16 00:40:12;;;;;;;52.50;24.17;;;3.00;99.90;;;;;;5103516;28;20062;-66
2022/03/16 00:42:38;;;;;;;53.25;23.90;;;2.80;99.90;;;;;;5130265;28;20042;-66
2022/03/16 00:45:04;;;;;;;64.93;26.83;;;2.60;99.90;;;;;;5130857;28;20393;-66
2022/03/16 00:47:30;;;;;;;217.65;27.98;;;2.60;99.90;;;;;;5111670;28;20438;-66
2022/03/16 00:49:56;;;;;;;54.95;23.75;;;2.00;99.90;;;;;;5112219;28;20027;-66
2022/03/16 00:52:21;;;;;;;52.20;24.48;;;2.00;99.90;;;;;;5106611;28;20126;-66
2022/03/16 00:54:47;;;;;;;75.93;28.00;;;2.00;99.90;;;;;;5130458;28;20501;-66
2022/03/16 00:57:12;;;;;;;56.80;24.80;;;2.00;99.90;;;;;;5108231;28;20073;-66
2022/03/16 00:59:39;;;;;;;69.20;28.58;;;2.00;99.90;;;;;;5118117;27;20038;-65
2022/03/16 01:02:05;;;;;;;84.70;33.50;;;2.10;99.90;;;;;;5111257;28;20047;-66
2022/03/16 01:04:30;;;;;;;64.18;27.95;;;2.20;99.90;;;;;;5112239;28;20062;-66
2022/03/16 01:06:56;;;;;;;66.32;29.42;;;2.20;99.90;;;;;;5111875;28;20129;-66
2022/03/16 01:09:21;;;;;;;62.95;28.67;;;2.30;99.90;;;;;;5111811;28;20051;-66
2022/03/16 01:11:47;;;;;;;60.90;26.65;;;2.30;99.90;;;;;;5109833;28;20121;-65
2022/03/16 01:14:13;;;;;;;90.72;28.73;;;2.40;99.90;;;;;;5111151;28;20031;-66
2022/03/16 01:16:39;;;;;;;62.42;24.23;;;2.40;99.90;;;;;;5112547;28;20405;-66
2022/03/16 01:19:05;;;;;;;59.75;26.42;;;2.40;99.90;;;;;;5112269;28;20051;-66
2022/03/16 01:21:31;;;;;;;250.98;33.35;;;2.40;99.90;;;;;;5111801;28;20062;-66
2022/03/16 01:23:56;;;;;;;69.35;28.15;;;2.40;99.90;;;;;;5127038;27;20485;-66
2022/03/16 01:26:22;;;;;;;87.88;30.00;;;2.30;99.90;;;;;;5132213;27;20208;-66
2022/03/16 01:28:47;;;;;;;129.38;31.20;;;2.30;99.90;;;;;;5115077;27;20443;-66
2022/03/16 01:31:13;;;;;;;81.13;28.15;;;2.30;99.90;;;;;;5115024;27;20613;-66
2022/03/16 01:33:38;;;;;;;107.18;29.45;;;2.30;99.90;;;;;;5116104;27;20131;-66
2022/03/16 01:36:04;;;;;;;162.68;31.85;;;2.30;99.90;;;;;;5116324;27;20061;-66
2022/03/16 01:38:30;;;;;;;146.05;32.95;;;2.30;99.90;;;;;;5108348;27;20492;-66
2022/03/16 01:40:56;;;;;;;111.30;31.45;;;2.30;99.90;;;;;;5112417;27;20043;-66
2022/03/16 01:43:22;;;;;;;72.05;31.95;;;2.30;99.90;;;;;;5114844;27;20046;-66
2022/03/16 01:45:50;;;;;;;73.68;31.42;;;2.20;99.90;;;;;;5113007;27;20036;-66
2022/03/16 01:48:16;;;;;;;120.97;33.85;;;2.20;99.90;;;;;;5114301;27;20110;-66
2022/03/16 01:50:41;;;;;;;78.70;33.88;;;2.20;99.90;;;;;;5114365;27;20127;-67
2022/03/16 01:53:07;;;;;;;75.28;32.08;;;2.30;99.90;;;;;;5097517;27;20076;-66
2022/03/16 01:55:32;;;;;;;66.53;29.77;;;2.20;99.90;;;;;;5108234;27;20104;-66
2022/03/16 01:58:00;;;;;;;75.35;32.80;;;2.20;99.90;;;;;;5114288;27;20045;-66
2022/03/16 02:00:25;;;;;;;73.00;31.00;;;2.20;99.90;;;;;;5131566;27;20031;-66
2022/03/16 02:02:51;;;;;;;66.88;29.75;;;2.20;99.90;;;;;;5109380;27;20047;-66
2022/03/16 02:05:16;;;;;;;73.75;30.60;;;2.20;99.90;;;;;;5115535;27;20086;-67
2022/03/16 02:07:43;;;;;;;183.65;35.58;;;2.10;99.90;;;;;;5132072;27;20435;-67
2022/03/16 02:10:09;;;;;;;457.48;42.08;;;2.00;99.90;;;;;;5114865;27;20501;-67
2022/03/16 02:12:45;;;;;;;329.80;35.42;;;2.00;99.90;;;;;;5114828;27;20042;-67
2022/03/16 02:15:11;;;;;;;421.08;36.08;;;1.90;99.90;;;;;;5114833;27;20036;-67
2022/03/16 02:17:37;;;;;;;525.17;40.90;;;1.90;99.90;;;;;;5114264;27;21396;-67
2022/03/16 02:20:04;;;;;;;330.92;34.67;;;1.90;99.90;;;;;;5129441;27;20164;-67
2022/03/16 02:22:33;;;;;;;399.77;37.65;;;1.90;99.90;;;;;;5114694;27;20039;-67
2022/03/16 02:24:58;;;;;;;382.48;41.63;;;1.90;99.90;;;;;;5114661;27;20039;-67
2022/03/16 02:27:24;;;;;;;110.88;32.58;;;1.80;99.90;;;;;;5113943;27;20046;-67
2022/03/16 02:29:49;;;;;;;101.22;32.13;;;1.70;99.90;;;;;;5109852;27;20385;-67
2022/03/16 02:32:15;;;;;;;74.45;31.83;;;1.70;99.90;;;;;;5113254;27;20042;-67
2022/03/16 02:34:40;;;;;;;79.13;31.00;;;1.60;99.90;;;;;;5114022;27;20455;-67
2022/03/16 02:37:06;;;;;;;117.88;32.83;;;1.60;99.90;;;;;;5113608;27;20043;-67
2022/03/16 02:39:32;;;;;;;111.97;31.42;;;1.70;99.90;;;;;;5113539;27;20047;-66
2022/03/16 02:41:57;;;;;;;117.82;33.45;;;1.60;99.90;;;;;;5114618;27;20050;-67
2022/03/16 02:44:23;;;;;;;141.00;37.80;;;1.60;99.90;;;;;;5114480;27;20071;-67
2022/03/16 02:46:48;;;;;;;91.68;34.22;;;1.60;99.90;;;;;;5114304;27;20057;-66
2022/03/16 02:49:14;;;;;;;121.97;32.67;;;1.50;99.90;;;;;;5109729;27;20130;-67
2022/03/16 02:51:39;;;;;;;129.77;31.38;;;1.50;99.90;;;;;;5097363;27;20118;-67
2022/03/16 02:54:06;;;;;;;149.40;31.35;;;1.50;99.90;;;;;;5113394;27;20057;-67
2022/03/16 02:56:32;;;;;;;59.90;27.55;;;1.40;99.90;;;;;;5114158;27;20427;-67
2022/03/16 02:58:57;;;;;;;60.63;27.88;;;1.40;99.90;;;;;;5095536;27;20043;-67
2022/03/16 03:01:23;;;;;;;101.80;30.55;;;1.50;99.90;;;;;;5112741;27;20042;-67
2022/03/16 03:03:48;;;;;;;222.38;34.50;;;1.40;99.90;;;;;;5114423;27;20043;-67
2022/03/16 03:06:14;;;;;;;122.18;33.13;;;1.40;99.90;;;;;;5111985;27;20034;-67
2022/03/16 03:08:39;;;;;;;184.88;33.58;;;1.50;99.90;;;;;;5112767;27;20446;-67
2022/03/16 03:11:05;;;;;;;65.45;30.90;;;1.40;99.90;;;;;;5108002;27;20493;-68
2022/03/16 03:13:30;;;;;;;326.40;35.45;;;1.40;99.90;;;;;;5113446;27;20047;-68
2022/03/16 03:15:56;;;;;;;115.85;30.08;;;1.40;99.90;;;;;;5113138;27;20039;-68
2022/03/16 03:18:21;;;;;;;148.95;30.50;;;1.40;99.90;;;;;;5113191;27;20039;-68
2022/03/16 03:20:47;;;;;;;174.63;30.65;;;1.40;99.90;;;;;;5112935;27;20039;-68
2022/03/16 03:23:13;;;;;;;204.45;33.72;;;1.30;99.90;;;;;;5098574;28;20044;-68
2022/03/16 03:25:38;;;;;;;73.93;33.35;;;1.20;99.90;;;;;;5104807;27;20039;-68
2022/03/16 03:28:04;;;;;;;144.73;34.35;;;1.20;99.90;;;;;;5113351;27;20051;-68
2022/03/16 03:30:29;;;;;;;319.73;40.55;;;1.20;99.90;;;;;;5112357;27;20050;-68
2022/03/16 03:32:55;;;;;;;484.00;44.75;;;0.90;99.90;;;;;;5112870;27;20058;-68
2022/03/16 03:35:22;;;;;;;185.57;34.65;;;0.70;99.90;;;;;;5112716;27;20051;-68
2022/03/16 03:37:48;;;;;;;209.48;35.85;;;0.60;99.90;;;;;;5131469;27;20486;-68
2022/03/16 03:40:14;;;;;;;84.50;32.60;;;0.50;99.90;;;;;;5110935;27;20451;-68
2022/03/16 03:42:39;;;;;;;71.10;32.92;;;0.40;99.90;;;;;;5113016;27;20519;-68
2022/03/16 03:45:05;;;;;;;76.80;33.28;;;0.50;99.90;;;;;;5113244;27;20039;-68
2022/03/16 03:47:31;;;;;;;65.40;30.67;;;0.50;99.90;;;;;;5112575;27;20039;-68
2022/03/16 03:49:56;;;;;;;93.53;33.13;;;0.50;99.90;;;;;;5112342;27;20388;-67
2022/03/16 03:52:22;;;;;;;78.40;34.28;;;0.50;99.90;;;;;;5111772;27;20086;-67
2022/03/16 03:54:47;;;;;;;93.00;33.70;;;0.60;99.90;;;;;;5113425;27;20500;-68
2022/03/16 03:57:13;;;;;;;78.60;33.90;;;0.70;99.90;;;;;;5113172;27;20031;-68
2022/03/16 03:59:38;;;;;;;101.75;32.38;;;0.80;99.90;;;;;;5111778;27;20047;-68
2022/03/16 04:02:04;;;;;;;72.28;32.72;;;0.80;99.90;;;;;;5112665;27;20049;-68
2022/03/16 04:04:29;;;;;;;96.93;34.58;;;0.90;99.90;;;;;;5111239;28;20078;-68
2022/03/16 04:06:55;;;;;;;72.60;32.05;;;0.90;99.90;;;;;;5113318;27;20035;-68
2022/03/16 04:09:21;;;;;;;66.82;31.60;;;0.90;99.90;;;;;;5108718;28;20062;-68
2022/03/16 04:11:46;;;;;;;74.68;32.05;;;0.90;99.90;;;;;;5113046;28;20477;-68
2022/03/16 04:14:12;;;;;;;129.00;32.03;;;0.80;99.90;;;;;;5112397;28;20137;-67
2022/03/16 04:16:38;;;;;;;141.80;33.83;;;0.90;99.90;;;;;;5128952;28;20054;-67
2022/03/16 04:19:03;;;;;;;125.22;33.35;;;0.80;99.90;;;;;;5108016;27;20027;-67
2022/03/16 04:21:29;;;;;;;120.00;31.35;;;0.80;99.90;;;;;;5105739;28;20576;-67
2022/03/16 04:23:55;;;;;;;110.90;30.80;;;0.80;99.90;;;;;;5112851;28;20393;-67
2022/03/16 04:26:21;;;;;;;70.15;31.00;;;0.80;99.90;;;;;;5113284;28;20062;-67
2022/03/16 04:28:46;;;;;;;79.88;30.55;;;0.80;99.90;;;;;;5110763;28;20031;-68
2022/03/16 04:31:12;;;;;;;61.47;30.67;;;0.80;99.90;;;;;;5111990;27;20064;-68
2022/03/16 04:33:38;;;;;;;317.88;42.55;;;0.80;99.90;;;;;;5112029;28;20070;-68
2022/03/16 04:36:05;;;;;;;165.93;37.72;;;0.70;99.90;;;;;;5112680;28;20043;-68
2022/03/16 04:38:31;;;;;;;94.07;35.63;;;0.60;99.90;;;;;;5112991;28;20499;-68
2022/03/16 04:40:56;;;;;;;73.05;31.67;;;0.50;99.90;;;;;;5111703;28;20072;-68
2022/03/16 04:43:22;;;;;;;67.90;30.92;;;0.50;99.90;;;;;;5104239;28;20126;-68
2022/03/16 04:45:47;;;;;;;77.65;32.72;;;0.40;99.90;;;;;;5130990;28;20069;-68
2022/03/16 04:48:13;;;;;;;77.03;34.40;;;0.50;99.90;;;;;;5112480;28;20045;-68
2022/03/16 04:50:39;;;;;;;75.57;33.28;;;0.40;99.90;;;;;;5112106;28;20066;-68
2022/03/16 04:53:05;;;;;;;82.28;35.60;;;0.50;99.90;;;;;;5112341;28;20130;-68
2022/03/16 04:55:32;;;;;;;140.30;36.63;;;0.50;99.90;;;;;;5112503;28;20146;-68
2022/03/16 04:57:59;;;;;;;392.77;50.05;;;0.60;99.90;;;;;;5102626;28;20058;-68
2022/03/16 05:00:25;;;;;;;423.23;50.65;;;0.50;99.90;;;;;;5114570;27;20085;-68
2022/03/16 05:02:50;;;;;;;111.65;40.97;;;0.20;99.90;;;;;;5116617;27;20427;-69
2022/03/16 05:05:16;;;;;;;137.98;38.42;;;0.10;99.90;;;;;;5115554;27;20031;-68
2022/03/16 05:07:41;;;;;;;115.90;39.03;;;0.20;99.90;;;;;;5116231;27;20070;-69
2022/03/16 05:10:07;;;;;;;192.50;39.58;;;0.20;99.90;;;;;;5115988;27;20035;-69
2022/03/16 05:12:41;;;;;;;117.78;38.28;;;0.20;99.90;;;;;;5115682;27;20074;-68
2022/03/16 05:15:08;;;;;;;187.60;39.17;;;0.30;99.90;;;;;;5114877;27;20323;-68
2022/03/16 05:17:34;;;;;;;209.00;43.28;;;0.30;99.90;;;;;;5112607;27;20406;-68
2022/03/16 05:20:00;;;;;;;183.43;41.80;;;0.40;99.90;;;;;;5111204;27;20031;-68
2022/03/16 05:22:25;;;;;;;227.63;45.58;;;0.30;99.90;;;;;;5136448;27;20079;-69
2022/03/16 05:24:51;;;;;;;142.70;41.42;;;0.40;99.90;;;;;;5111042;27;20043;-68
2022/03/16 05:27:19;;;;;;;129.98;39.80;;;0.30;99.90;;;;;;5115160;27;20039;-69
2022/03/16 05:29:45;;;;;;;110.35;39.03;;;0.40;99.90;;;;;;5114272;27;20604;-68
2022/03/16 05:32:10;;;;;;;107.60;39.20;;;0.40;99.90;;;;;;5115144;27;20070;-68
2022/03/16 05:34:36;;;;;;;99.95;39.25;;;0.40;99.90;;;;;;5115341;27;20088;-68
2022/03/16 05:37:02;;;;;;;83.78;36.03;;;0.50;99.90;;;;;;5113340;27;20083;-68
2022/03/16 05:39:27;;;;;;;84.88;37.25;;;0.40;99.90;;;;;;5100761;27;20055;-68
2022/03/16 05:41:53;;;;;;;93.75;38.13;;;0.50;99.90;;;;;;5114650;27;20062;-68
2022/03/16 05:44:19;;;;;;;95.50;38.85;;;0.60;99.90;;;;;;5115089;27;20039;-68
2022/03/16 05:46:44;;;;;;;94.05;38.78;;;0.70;99.90;;;;;;5113462;27;20039;-69
2022/03/16 05:49:10;;;;;;;103.00;40.35;;;0.80;99.90;;;;;;5114162;27;20031;-69
2022/03/16 05:51:35;;;;;;;97.18;40.13;;;0.90;99.90;;;;;;5114860;27;20092;-69
2022/03/16 05:54:01;;;;;;;104.38;42.45;;;0.90;99.90;;;;;;5113747;27;20043;-69
2022/03/16 05:56:27;;;;;;;106.18;43.13;;;1.00;99.90;;;;;;5112832;27;20042;-68
2022/03/16 05:58:52;;;;;;;118.20;45.08;;;1.10;99.90;;;;;;5113475;27;20430;-69
2022/03/16 06:01:18;;;;;;;121.95;45.85;;;1.20;99.90;;;;;;5114566;27;20143;-69
2022/03/16 06:03:43;;;;;;;147.50;52.47;;;1.20;99.90;;;;;;5110037;27;20489;-70
2022/03/16 06:06:09;;;;;;;126.07;47.05;;;1.30;99.90;;;;;;5095022;28;20482;-70
2022/03/16 06:08:35;;;;;;;119.30;46.17;;;1.40;99.90;;;;;;5103818;27;20046;-69
2022/03/16 06:11:00;;;;;;;120.80;45.83;;;1.40;99.90;;;;;;5113771;27;20036;-69
2022/03/16 06:13:26;;;;;;;114.78;45.28;;;1.40;99.90;;;;;;5114236;27;20054;-68
2022/03/16 06:15:51;;;;;;;113.47;44.83;;;1.60;99.90;;;;;;5113865;27;20571;-69
2022/03/16 06:18:17;;;;;;;112.18;44.75;;;1.60;99.90;;;;;;5114227;27;20035;-69
2022/03/16 06:20:42;;;;;;;130.50;46.53;;;1.70;99.90;;;;;;5112440;27;20039;-69
2022/03/16 06:23:08;;;;;;;104.90;43.17;;;1.70;99.90;;;;;;5114801;27;20084;-69
2022/03/16 06:25:35;;;;;;;126.82;47.72;;;1.80;99.90;;;;;;5114072;27;20497;-69
2022/03/16 06:28:01;;;;;;;131.27;48.63;;;1.90;99.90;;;;;;5130590;27;20027;-69
2022/03/16 06:30:27;;;;;;;136.05;50.50;;;1.90;99.90;;;;;;5112184;27;20047;-69
2022/03/16 06:32:53;;;;;;;147.18;53.63;;;1.90;99.90;;;;;;5114227;27;20038;-69
2022/03/16 06:35:18;;;;;;;138.48;52.35;;;2.00;99.90;;;;;;5113178;27;20039;-69
2022/03/16 06:37:45;;;;;;;138.48;52.08;;;2.10;99.90;;;;;;5110164;27;20626;-69
2022/03/16 06:40:11;;;;;;;144.65;52.83;;;2.10;99.90;;;;;;5130629;27;20031;-69
2022/03/16 06:42:57;;;;;;;141.13;50.80;;;2.30;99.90;;;;;;5115439;27;20042;-69
2022/03/16 06:45:24;;;;;;;147.85;56.28;;;2.40;99.90;;;;;;5110149;27;20118;-69
2022/03/16 06:47:53;;;;;;;143.98;54.67;;;2.40;99.90;;;;;;5110296;27;20042;-69
2022/03/16 06:50:20;;;;;;;139.88;53.67;;;2.50;99.90;;;;;;5113494;27;20043;-68
2022/03/16 06:52:46;;;;;;;144.88;56.03;;;2.70;99.90;;;;;;5113989;27;20103;-68
2022/03/16 06:55:12;;;;;;;148.10;55.30;;;2.70;99.90;;;;;;5113844;27;20031;-69
2022/03/16 06:57:37;;;;;;;158.30;57.38;;;2.70;99.90;;;;;;5113645;27;20534;-69
2022/03/16 07:00:05;;;;;;;161.57;56.17;;;2.90;99.90;;;;;;5098530;28;20448;-69
2022/03/16 07:02:31;;;;;;;169.48;60.35;;;3.00;99.90;;;;;;5093726;28;20059;-69
2022/03/16 07:04:58;;;;;;;158.30;60.50;;;3.00;99.90;;;;;;5093693;28;20075;-69
2022/03/16 07:07:26;;;;;;;163.23;60.42;;;3.20;99.90;;;;;;5112571;27;20070;-69
2022/03/16 07:09:52;;;;;;;163.80;60.90;;;3.20;99.90;;;;;;5110388;27;20062;-69
2022/03/16 07:12:17;;;;;;;180.13;63.72;;;3.40;99.90;;;;;;5092831;28;20028;-69
2022/03/16 07:14:44;;;;;;;175.73;65.25;;;3.50;99.90;;;;;;5093094;28;20266;-69
2022/03/16 07:17:10;;;;;;;196.73;69.85;;;3.70;99.90;;;;;;5103513;27;20039;-69
2022/03/16 07:19:36;;;;;;;203.73;72.88;;;3.90;99.90;;;;;;5109427;28;20036;-69
2022/03/16 07:22:01;;;;;;;223.73;76.15;;;4.10;99.90;;;;;;5108969;27;20047;-69
2022/03/16 07:24:27;;;;;;;214.20;74.40;;;4.10;99.90;;;;;;5093141;27;20050;-69
2022/03/16 07:26:54;;;;;;;216.43;74.88;;;4.30;99.90;;;;;;5093083;28;20122;-69
2022/03/16 07:29:20;;;;;;;222.25;75.53;;;4.50;99.90;;;;;;5093033;27;20044;-69
2022/03/16 07:31:46;;;;;;;223.55;74.90;;;4.60;99.90;;;;;;5111337;27;20039;-68
2022/03/16 07:34:12;;;;;;;246.23;79.97;;;4.80;99.90;;;;;;5113803;27;20122;-67
2022/03/16 07:36:37;;;;;;;232.15;79.22;;;4.90;99.90;;;;;;5114243;27;20047;-67
2022/03/16 07:39:03;;;;;;;229.98;77.60;;;5.20;99.90;;;;;;5115598;27;20500;-66
2022/03/16 07:41:28;;;;;;;230.25;78.07;;;5.30;99.90;;;;;;5115454;27;20085;-67
2022/03/16 07:43:54;;;;;;;230.57;74.97;;;5.60;99.90;;;;;;5115382;27;20054;-66
2022/03/16 07:46:19;;;;;;;221.70;72.63;;;5.70;99.90;;;;;;5110750;27;20035;-66
2022/03/16 07:48:45;;;;;;;226.25;72.57;;;5.90;99.90;;;;;;5131580;27;20227;-66
2022/03/16 07:51:11;;;;;;;206.20;68.57;;;6.00;99.90;;;;;;5112953;27;20035;-66
2022/03/16 07:53:37;;;;;;;214.88;69.40;;;6.20;99.90;;;;;;5113130;27;20489;-66
2022/03/16 07:56:03;;;;;;;193.95;67.30;;;6.30;99.90;;;;;;5113293;27;20531;-66
2022/03/16 07:58:30;;;;;;;193.00;64.20;;;6.50;99.90;;;;;;5113098;27;20047;-66
2022/03/16 08:00:55;;;;;;;183.98;62.65;;;6.70;99.90;;;;;;5112984;27;20055;-67
2022/03/16 08:03:21;;;;;;;183.85;60.30;;;6.80;99.90;;;;;;5132573;27;20203;-66
2022/03/16 08:05:47;;;;;;;172.70;59.28;;;6.90;99.90;;;;;;5111700;27;20035;-67
2022/03/16 08:08:13;;;;;;;154.02;55.85;;;7.10;99.90;;;;;;5131381;27;20043;-66
2022/03/16 08:10:39;;;;;;;158.18;56.35;;;7.20;99.90;;;;;;5131263;27;20035;-67
2022/03/16 08:13:04;;;;;;;143.45;53.03;;;7.30;99.90;;;;;;5112389;28;20443;-67
2022/03/16 08:15:30;;;;;;;156.55;55.95;;;7.30;99.90;;;;;;5102953;28;20063;-67
2022/03/16 08:17:56;;;;;;;145.07;54.28;;;7.40;99.90;;;;;;5092496;28;20131;-67
2022/03/16 08:20:21;;;;;;;147.15;56.05;;;7.60;99.90;;;;;;5112948;28;20035;-66
2022/03/16 08:22:51;;;;;;;141.73;51.67;;;7.50;99.90;;;;;;5112223;28;20112;-67
2022/03/16 08:25:16;;;;;;;143.82;50.55;;;7.60;99.90;;;;;;5111557;28;20051;-66
2022/03/16 08:27:42;;;;;;;130.90;50.17;;;7.70;99.90;;;;;;5110596;28;20051;-66
2022/03/16 08:30:09;;;;;;;133.85;48.05;;;7.80;99.90;;;;;;5112380;28;20067;-66
2022/03/16 08:32:35;;;;;;;131.82;48.40;;;7.90;99.90;;;;;;5110686;27;20118;-67
2022/03/16 08:35:01;;;;;;;130.15;50.45;;;8.00;99.90;;;;;;5112030;28;20131;-66
2022/03/16 08:37:26;;;;;;;125.57;47.95;;;8.10;99.90;;;;;;5102881;27;20035;-66
2022/03/16 08:39:52;;;;;;;126.47;47.38;;;8.20;99.90;;;;;;5115823;27;20038;-66
2022/03/16 08:42:19;;;;;;;115.28;45.25;;;8.30;99.90;;;;;;5117162;27;20130;-66
2022/03/16 08:44:45;;;;;;;112.55;42.92;;;8.40;99.90;;;;;;5115260;27;20034;-67
2022/03/16 08:47:16;;;;;;;114.43;42.25;;;8.50;99.90;;;;;;5116762;27;20251;-67
2022/03/16 08:49:42;;;;;;;101.75;39.35;;;8.60;99.90;;;;;;5108065;27;20087;-66
2022/03/16 08:52:08;;;;;;;115.10;43.25;;;8.70;99.90;;;;;;5114716;27;20050;-66
2022/03/16 08:54:34;;;;;;;109.20;42.33;;;8.80;99.90;;;;;;5115056;27;20405;-65
2022/03/16 08:57:00;;;;;;;113.43;41.88;;;8.90;99.90;;;;;;5128855;27;20035;-68
2022/03/16 08:59:26;;;;;;;119.72;44.35;;;9.00;99.90;;;;;;5114262;27;20054;-70
2022/03/16 09:01:51;;;;;;;112.10;44.67;;;9.10;99.90;;;;;;5115606;27;20043;-68
2022/03/16 09:04:17;;;;;;;110.68;42.33;;;9.20;99.90;;;;;;5115591;27;20051;-68
2022/03/16 09:06:42;;;;;;;115.35;43.92;;;9.40;99.90;;;;;;5115994;27;20489;-67
2022/03/16 09:09:08;;;;;;;115.63;44.53;;;9.50;99.90;;;;;;5114776;27;20055;-69
2022/03/16 09:11:34;;;;;;;109.13;41.75;;;9.60;99.90;;;;;;5116344;27;20043;-68
2022/03/16 09:14:01;;;;;;;109.00;40.10;;;9.70;99.90;;;;;;5113735;27;20043;-71
2022/03/16 09:16:27;;;;;;;109.10;38.58;;;9.80;99.90;;;;;;5095203;27;20070;-73
2022/03/16 09:18:54;;;;;;;102.50;38.25;;;9.90;99.90;;;;;;5109165;27;20307;-73
2022/03/16 09:21:19;;;;;;;102.75;36.22;;;9.90;99.90;;;;;;5112725;27;20138;-76
2022/03/16 09:23:45;;;;;;;96.43;37.30;;;10.00;99.90;;;;;;5109637;27;20035;-72
2022/03/16 09:26:11;;;;;;;101.40;38.03;;;10.00;99.90;;;;;;5115676;27;20146;-71
2022/03/16 09:28:36;;;;;;;96.28;34.92;;;10.10;99.90;;;;;;5096383;27;20126;-72
2022/03/16 09:31:02;;;;;;;89.30;34.90;;;10.20;99.90;;;;;;5116224;27;20489;-71
2022/03/16 09:33:30;;;;;;;89.25;34.00;;;10.30;99.90;;;;;;5115174;27;20125;-72
2022/03/16 09:35:56;;;;;;;91.53;34.13;;;10.30;99.90;;;;;;5116200;27;20447;-75
2022/03/16 09:38:22;;;;;;;88.13;34.53;;;10.40;99.90;;;;;;5115343;27;20047;-71
2022/03/16 09:41:01;;;;;;;94.43;35.17;;;10.50;99.90;;;;;;5109121;27;20043;-72
2022/03/16 09:43:28;;;;;;;90.75;34.10;;;10.60;99.90;;;;;;5113781;27;20401;-69
2022/03/16 09:46:04;;;;;;;83.88;33.00;;;10.70;99.90;;;;;;5108156;28;20387;-70
2022/03/16 09:48:31;;;;;;;82.57;31.77;;;10.80;99.90;;;;;;5100321;27;20073;-72
2022/03/16 09:50:58;;;;;;;82.47;33.45;;;10.90;99.90;;;;;;5109482;27;20046;-72
2022/03/16 09:53:26;;;;;;;86.20;33.13;;;11.00;99.90;;;;;;5113462;27;20074;-71
2022/03/16 09:55:52;;;;;;;90.40;33.25;;;11.10;99.90;;;;;;5114772;27;20065;-70
2022/03/16 09:58:22;;;;;;;79.60;31.95;;;11.20;99.90;;;;;;5113120;27;20051;-71
2022/03/16 10:00:48;;;;;;;79.70;32.35;;;11.20;99.90;;;;;;5113710;27;20066;-67
2022/03/16 10:03:15;;;;;;;77.47;31.17;;;11.20;99.90;;;;;;5114079;27;20050;-72
2022/03/16 10:05:41;;;;;;;76.10;30.98;;;11.30;99.90;;;;;;5114748;27;20100;-70
2022/03/16 10:08:08;;;;;;;80.40;31.00;;;11.40;99.90;;;;;;5112162;27;20035;-71
2022/03/16 10:13:23;;;;;;;74.25;30.67;;;11.40;99.90;;;;;;5114186;27;21412;-71
2022/03/16 10:15:55;;;;;;;66.55;28.75;;;11.50;99.90;;;;;;5113322;27;20553;-70
2022/03/16 10:18:23;;;;;;;77.85;28.17;;;11.60;99.90;;;;;;5114378;27;20051;-72
2022/03/16 10:20:50;;;;;;;69.40;28.02;;;11.70;99.90;;;;;;5111941;27;20039;-74
2022/03/16 10:23:21;;;;;;;67.78;29.33;;;11.80;99.90;;;;;;5113856;27;20035;-72
2022/03/16 10:25:52;;;;;;;69.03;27.27;;;12.00;99.90;;;;;;5113803;27;20478;-72
2022/03/16 10:28:23;;;;;;;67.28;26.33;;;12.10;99.90;;;;;;5112284;27;20035;-73
2022/03/16 10:31:05;;;;;;;63.83;25.38;;;12.30;99.90;;;;;;5098183;27;20497;-73
2022/03/16 10:33:50;;;;;;;70.00;26.15;;;12.40;99.90;;;;;;5113389;27;20045;-73
2022/03/16 10:36:17;;;;;;;65.13;26.40;;;12.50;99.90;;;;;;5110756;27;20417;-72
2022/03/16 10:38:58;;;;;;;71.75;27.75;;;12.60;99.90;;;;;;5112806;27;20130;-69
2022/03/16 10:47:18;;;;;;;66.70;25.85;;;13.00;99.90;;;;;;5112794;27;20045;-70
2022/03/16 10:49:45;;;;;;;53.55;22.98;;;13.10;99.90;;;;;;5113235;27;20027;-70
2022/03/16 10:52:20;;;;;;;61.55;22.65;;;13.20;99.90;;;;;;5113851;27;20035;-73
2022/03/16 10:54:49;;;;;;;49.17;21.90;;;13.20;99.90;;;;;;5113340;27;20508;-74
2022/03/16 10:57:15;;;;;;;57.28;22.42;;;13.30;99.90;;;;;;5113227;27;20039;-71
2022/03/16 10:59:42;;;;;;;55.65;23.52;;;13.40;99.90;;;;;;5111660;27;20043;-69
2022/03/16 11:02:13;;;;;;;52.05;21.65;;;13.50;99.90;;;;;;5113479;27;20470;-72
2022/03/16 11:04:47;;;;;;;58.45;22.05;;;13.60;99.90;;;;;;5113252;27;20039;-73
2022/03/16 11:07:14;;;;;;;52.85;22.17;;;13.70;99.90;;;;;;5113648;27;20035;-71
2022/03/16 11:09:41;;;;;;;51.67;21.05;;;13.70;99.90;;;;;;5113088;27;20038;-72
2022/03/16 11:14:52;;;;;;;61.35;22.35;;;13.80;99.90;;;;;;5112645;27;20566;-72
2022/03/16 11:17:19;;;;;;;62.65;23.15;;;13.90;99.90;;;;;;5110026;27;20076;-70
2022/03/16 11:19:47;;;;;;;52.05;22.50;;;13.90;99.90;;;;;;5099388;27;20442;-70
2022/03/16 11:22:26;;;;;;;53.47;22.55;;;13.90;99.90;;;;;;5113684;27;20070;-72
2022/03/16 11:25:15;;;;;;;47.28;20.88;;;14.00;99.90;;;;;;5107442;27;20047;-69
2022/03/16 11:27:51;;;;;;;52.05;20.95;;;14.00;99.90;;;;;;5111699;27;20031;-74
2022/03/16 11:30:29;;;;;;;51.85;21.10;;;14.00;99.90;;;;;;5111568;27;20427;-74
2022/03/16 11:33:07;;;;;;;47.25;20.77;;;14.00;99.90;;;;;;5111614;27;20026;-72
2022/03/16 11:35:36;;;;;;;50.80;20.33;;;14.10;99.90;;;;;;5111703;27;20082;-72
2022/03/16 11:38:09;;;;;;;50.00;20.25;;;14.10;99.90;;;;;;5112513;27;20027;-71
2022/03/16 11:40:35;;;;;;;49.25;20.67;;;14.20;99.90;;;;;;5111733;27;20041;-72
2022/03/16 11:43:04;;;;;;;48.17;19.95;;;14.20;99.90;;;;;;5107765;27;20109;-72
2022/03/16 11:45:37;;;;;;;44.55;19.63;;;14.30;99.90;;;;;;5112810;27;20054;-75
2022/03/16 11:48:37;;;;;;;45.38;19.35;;;14.30;99.90;;;;;;5111969;27;20039;-71
2022/03/16 11:51:08;;;;;;;52.08;19.20;;;14.40;99.90;;;;;;5111917;27;20041;-73
2022/03/16 11:53:57;;;;;;;42.10;18.35;;;14.40;99.90;;;;;;5107376;27;20401;-72
2022/03/16 11:56:36;;;;;;;43.55;19.65;;;14.50;99.90;;;;;;5110661;27;20062;-74
2022/03/16 11:59:23;;;;;;;45.50;18.75;;;14.50;99.90;;;;;;5110021;27;20047;-72
2022/03/16 12:01:52;;;;;;;47.28;19.40;;;14.50;99.90;;;;;;5098851;27;20047;-72
2022/03/16 12:04:35;;;;;;;48.47;20.33;;;14.50;99.90;;;;;;5110195;27;20088;-73
2022/03/16 12:07:14;;;;;;;46.28;19.33;;;14.60;99.90;;;;;;5110128;27;20133;-71
2022/03/16 12:09:47;;;;;;;47.65;19.80;;;14.70;99.90;;;;;;5111781;28;20135;-71
2022/03/16 12:15:01;;;;;;;48.63;21.02;;;14.70;99.90;;;;;;5106163;28;20410;-73
2022/03/16 12:17:27;;;;;;;47.97;20.33;;;14.80;99.90;;;;;;5111814;28;20054;-72
2022/03/16 12:20:23;;;;;;;47.10;19.08;;;14.80;99.90;;;;;;5111905;28;20755;-72
2022/03/16 12:22:51;;;;;;;52.10;21.42;;;14.80;99.90;;;;;;5112080;28;20405;-73
2022/03/16 12:25:25;;;;;;;53.17;21.83;;;14.90;99.90;;;;;;5108621;27;20039;-71
2022/03/16 12:31:00;;;;;;;46.95;19.88;;;14.90;99.90;;;;;;5094759;28;20429;-73
2022/03/16 12:33:43;;;;;;;46.53;19.48;;;14.90;99.90;;;;;;5107905;27;20177;-77
2022/03/16 12:36:12;;;;;;;;;;;15.00;99.90;;;;;;5097023;28;20039;-73
2022/03/16 12:38:45;;;;;;;40.88;18.80;;;15.00;99.90;;;;;;5111329;28;19915;-72
2022/03/16 12:43:58;;;;;;;44.08;19.48;;;15.10;99.90;;;;;;5111909;28;20460;-71
2022/03/16 12:46:33;;;;;;;46.28;20.27;;;15.20;99.90;;;;;;5111861;28;20035;-72
2022/03/16 12:49:07;;;;;;;44.45;19.67;;;15.20;99.90;;;;;;5111452;28;20413;-77
2022/03/16 12:51:53;;;;;;;50.40;20.23;;;15.20;99.90;;;;;;5112229;28;20047;-71